Time;durP1;ratioP1;P1;durP2;ratioP2;P2;SDS_P1;SDS_P2;PMS_P1;PMS_P2;Temp;Humidity;BMP_temperature;BMP_pressure;BME280_temperature;BME280_humidity;BME280_pressure;Samples;Min_cycle;Max_cycle;Signal;HPM_P1;HPM_P2
2023/04/25 00:01:16;;;;;;;12.43;7.57;;;;;;;5.38;100.00;100917.94;4904614;28;20058;-78
2023/04/25 00:03:42;;;;;;;14.80;7.28;;;;;;;5.41;100.00;100923.16;4895733;28;20556;-80
2023/04/25 00:06:08;;;;;;;13.15;7.90;;;;;;;5.42;100.00;100919.59;4884894;28;20524;-80
2023/04/25 00:08:33;;;;;;;19.23;8.13;;;;;;;5.39;100.00;100925.84;4930942;28;20511;-79
2023/04/25 00:10:59;;;;;;;17.52;6.90;;;;;;;5.33;100.00;100912.78;4885773;28;20025;-80
2023/04/25 00:13:25;;;;;;;16.63;7.40;;;;;;;5.33;100.00;100915.44;4888244;28;20036;-79
2023/04/25 00:15:52;;;;;;;16.58;7.68;;;;;;;5.38;100.00;100929.38;4896189;28;20043;-79
2023/04/25 00:18:18;;;;;;;16.60;7.82;;;;;;;5.35;100.00;100932.13;4889867;28;20501;-80
2023/04/25 00:20:46;;;;;;;17.60;7.88;;;;;;;5.35;100.00;100926.84;4920195;28;20035;-79
2023/04/25 00:23:17;;;;;;;15.85;7.18;;;;;;;5.34;100.00;100937.41;4890941;28;20044;-78
2023/04/25 00:25:44;;;;;;;16.17;7.53;;;;;;;5.34;100.00;100932.13;4886164;28;20120;-79
2023/04/25 00:28:10;;;;;;;15.63;6.63;;;;;;;5.28;100.00;100922.63;4890297;28;20517;-79
2023/04/25 00:30:35;;;;;;;15.05;6.97;;;;;;;5.24;100.00;100929.75;4923692;28;20027;-78
2023/04/25 00:33:00;;;;;;;21.38;8.02;;;;;;;5.16;100.00;100930.88;4890336;28;20037;-80
2023/04/25 00:35:26;;;;;;;18.85;7.90;;;;;;;5.11;100.00;100928.38;4947951;28;20443;-80
2023/04/25 00:37:51;;;;;;;17.58;7.57;;;;;;;5.09;100.00;100937.22;4891838;28;20045;-79
2023/04/25 00:40:16;;;;;;;16.42;7.43;;;;;;;5.04;100.00;100934.69;4897649;28;21977;-80
2023/04/25 00:42:42;;;;;;;17.25;7.85;;;;;;;4.96;100.00;100929.63;4893841;28;20091;-80
2023/04/25 00:45:12;;;;;;;16.08;7.68;;;;;;;4.92;100.00;100925.34;4886858;28;20055;-79
2023/04/25 00:47:38;;;;;;;15.80;8.35;;;;;;;4.83;100.00;100933.50;4905359;28;20052;-79
2023/04/25 00:50:04;;;;;;;17.95;8.27;;;;;;;4.78;100.00;100924.84;4904404;28;20026;-78
2023/04/25 00:52:30;;;;;;;15.75;7.95;;;;;;;4.69;100.00;100923.31;4973084;28;20044;-79
2023/04/25 00:54:55;;;;;;;18.50;8.65;;;;;;;4.61;100.00;100924.41;4884622;29;20024;-78
2023/04/25 00:57:20;;;;;;;15.25;8.43;;;;;;;4.57;100.00;100928.88;4886333;29;20091;-80
2023/04/25 00:59:46;;;;;;;19.75;8.60;;;;;;;4.48;100.00;100932.63;4898807;28;20034;-79
2023/04/25 01:02:12;;;;;;;17.35;8.95;;;;;;;4.46;100.00;100937.03;4886204;28;20029;-79
2023/04/25 01:04:38;;;;;;;14.95;8.30;;;;;;;4.44;100.00;100933.59;4885256;28;20044;-79
2023/04/25 01:07:04;;;;;;;18.27;8.80;;;;;;;4.44;100.00;100936.22;4886165;28;20071;-79
2023/04/25 01:09:31;;;;;;;19.58;8.75;;;;;;;4.44;100.00;100927.47;4923427;28;20028;-79
2023/04/25 01:11:57;;;;;;;17.33;8.73;;;;;;;4.42;100.00;100935.38;4883211;28;20101;-78
2023/04/25 01:14:22;;;;;;;19.45;10.10;;;;;;;4.44;100.00;100930.94;4918914;28;20116;-79
2023/04/25 01:16:48;;;;;;;17.05;9.65;;;;;;;4.46;100.00;100930.91;4902932;28;20032;-80
2023/04/25 01:19:16;;;;;;;17.67;9.32;;;;;;;4.48;100.00;100932.63;4953111;28;20186;-80
2023/04/25 01:21:42;;;;;;;20.30;9.25;;;;;;;4.46;100.00;100921.22;4886858;28;20044;-79
2023/04/25 01:24:07;;;;;;;15.63;8.98;;;;;;;4.48;100.00;100934.38;4903880;28;20458;-79
2023/04/25 01:26:35;;;;;;;19.90;9.32;;;;;;;4.42;100.00;100930.09;4890201;28;20791;-80
2023/04/25 01:29:01;;;;;;;22.58;9.38;;;;;;;4.36;100.00;100939.94;4885956;28;20091;-80
2023/04/25 01:31:28;;;;;;;17.92;8.65;;;;;;;4.31;100.00;100939.19;4903921;28;20033;-81
2023/04/25 01:33:53;;;;;;;23.08;9.07;;;;;;;4.24;100.00;100934.06;4890993;28;20026;-79
2023/04/25 01:36:18;;;;;;;20.17;9.13;;;;;;;4.25;100.00;100937.56;4965759;28;20070;-79
2023/04/25 01:38:47;;;;;;;21.75;9.00;;;;;;;4.19;100.00;100942.97;4885305;28;20056;-80
2023/04/25 01:41:12;;;;;;;22.52;8.77;;;;;;;4.14;100.00;100936.91;4899279;28;20035;-78
2023/04/25 01:43:38;;;;;;;21.27;9.10;;;;;;;4.11;100.00;100932.59;4883569;28;20036;-79
2023/04/25 01:46:04;;;;;;;20.23;9.07;;;;;;;4.10;100.00;100941.44;4885802;28;20233;-80
2023/04/25 01:48:30;;;;;;;22.52;9.77;;;;;;;4.15;100.00;100943.94;4897110;28;20397;-79
2023/04/25 01:50:55;;;;;;;18.77;8.88;;;;;;;4.22;100.00;100948.16;4885725;28;20104;-80
2023/04/25 01:53:20;;;;;;;16.60;8.30;;;;;;;4.30;100.00;100951.47;4902028;28;20036;-80
2023/04/25 01:55:46;;;;;;;19.67;9.00;;;;;;;4.41;100.00;100960.00;4884478;29;20047;-80
2023/04/25 01:58:12;;;;;;;19.20;8.70;;;;;;;4.40;100.00;100954.78;4894914;28;20060;-80
2023/04/25 02:00:38;;;;;;;17.77;8.68;;;;;;;4.39;100.00;100953.94;4885367;28;20032;-80
2023/04/25 02:03:05;;;;;;;14.65;8.57;;;;;;;4.33;100.00;100951.41;4931428;28;20033;-80
2023/04/25 02:05:38;;;;;;;19.55;8.65;;;;;;;4.29;100.00;100956.78;4949958;28;20040;-80
2023/04/25 02:08:06;;;;;;;20.83;9.55;;;;;;;4.21;100.00;100951.69;4960197;28;20036;-80
2023/04/25 02:10:33;;;;;;;15.95;8.80;;;;;;;4.20;100.00;100958.75;4885546;28;20489;-80
2023/04/25 02:12:58;;;;;;;20.80;8.98;;;;;;;4.19;100.00;100964.91;4881850;28;20037;-79
2023/04/25 02:15:24;;;;;;;18.52;8.88;;;;;;;4.17;100.00;100965.84;4883517;28;20601;-79
2023/04/25 02:17:49;;;;;;;18.77;9.13;;;;;;;4.26;100.00;100963.00;4891649;28;20063;-79
2023/04/25 02:20:15;;;;;;;18.73;9.20;;;;;;;4.30;100.00;100958.53;4921487;28;20041;-79
2023/04/25 02:22:41;;;;;;;22.33;9.48;;;;;;;4.40;100.00;100965.31;4890370;28;20109;-79
2023/04/25 02:25:07;;;;;;;22.33;9.00;;;;;;;4.43;100.00;100973.13;4903074;28;20487;-79
2023/04/25 02:27:33;;;;;;;19.02;9.00;;;;;;;4.48;100.00;100966.88;4896798;28;20111;-79
2023/04/25 02:29:58;;;;;;;19.65;9.35;;;;;;;4.47;100.00;100954.59;4939011;28;20116;-79
2023/04/25 02:32:23;;;;;;;18.58;9.10;;;;;;;4.48;100.00;100966.88;4884338;28;20111;-79
2023/04/25 02:34:49;;;;;;;24.30;9.25;;;;;;;4.55;100.00;100974.63;4893133;28;20522;-79
2023/04/25 02:37:14;;;;;;;22.40;9.38;;;;;;;4.55;100.00;100964.94;4886093;28;20033;-79
2023/04/25 02:39:39;;;;;;;18.95;9.18;;;;;;;4.53;100.00;100972.03;4884713;28;20060;-80
2023/04/25 02:42:05;;;;;;;22.40;8.93;;;;;;;4.48;100.00;100974.78;4964817;28;20753;-79
2023/04/25 02:44:30;;;;;;;21.73;8.65;;;;;;;4.37;100.00;100963.63;4962415;28;20071;-79
2023/04/25 02:46:56;;;;;;;19.38;9.05;;;;;;;4.34;100.00;100974.22;4980368;28;20059;-80
2023/04/25 02:49:21;;;;;;;19.65;8.65;;;;;;;4.30;100.00;100967.28;4884547;28;20564;-80
2023/04/25 02:51:46;;;;;;;18.00;8.95;;;;;;;4.25;100.00;100974.44;4882959;28;20036;-80
2023/04/25 02:54:11;;;;;;;23.23;9.63;;;;;;;4.15;100.00;100967.66;4960643;28;20036;-78
2023/04/25 02:56:37;;;;;;;16.67;8.93;;;;;;;4.11;100.00;100974.75;4886385;28;20115;-78
2023/04/25 02:59:02;;;;;;;21.83;9.98;;;;;;;4.06;100.00;100960.81;4923197;28;20024;-80
2023/04/25 03:01:28;;;;;;;18.48;9.30;;;;;;;4.06;100.00;100957.34;4890954;28;20494;-80
2023/04/25 03:03:53;;;;;;;18.92;9.05;;;;;;;4.06;100.00;100962.59;4889307;28;20362;-80
2023/04/25 03:06:18;;;;;;;21.05;9.05;;;;;;;4.03;100.00;100957.41;4890810;28;20120;-79
2023/04/25 03:08:44;;;;;;;20.38;9.32;;;;;;;3.97;100.00;100964.53;4895804;28;20040;-79
2023/04/25 03:11:10;;;;;;;25.00;8.85;;;;;;;3.97;100.00;100964.53;4905791;28;20043;-79
2023/04/25 03:13:35;;;;;;;18.92;9.23;;;;;;;3.98;100.00;100965.41;4970024;28;20039;-80
2023/04/25 03:16:01;;;;;;;21.13;9.63;;;;;;;4.01;100.00;100975.84;4904142;28;20028;-80
2023/04/25 03:18:26;;;;;;;20.02;9.50;;;;;;;4.00;100.00;100969.72;4930776;28;20030;-79
2023/04/25 03:20:51;;;;;;;21.95;9.07;;;;;;;3.99;100.00;100981.16;4910553;28;20028;-79
2023/04/25 03:23:17;;;;;;;15.90;9.27;;;;;;;4.03;100.00;100979.31;4883397;28;20633;-79
2023/04/25 03:25:42;;;;;;;24.23;9.95;;;;;;;3.93;100.00;100959.34;4896032;28;20186;-79
2023/04/25 03:28:08;;;;;;;21.08;9.52;;;;;;;4.03;100.00;100986.38;4964496;28;20048;-80
2023/04/25 03:30:33;;;;;;;20.05;9.20;;;;;;;4.02;100.00;100982.00;4885210;28;20753;-80
2023/04/25 03:32:59;;;;;;;17.92;9.02;;;;;;;4.01;100.00;100986.38;4963234;28;20506;-79
2023/04/25 03:35:24;;;;;;;20.45;9.10;;;;;;;4.00;100.00;100982.00;4883115;28;20056;-80
2023/04/25 03:37:50;;;;;;;19.63;9.27;;;;;;;3.98;100.00;100982.06;4896183;28;20745;-80
2023/04/25 03:40:15;;;;;;;24.45;9.55;;;;;;;3.96;100.00;100978.56;4964083;28;20068;-80
2023/04/25 03:42:40;;;;;;;22.05;9.45;;;;;;;4.01;100.00;100981.09;4893682;28;20029;-80
2023/04/25 03:45:07;;;;;;;23.05;9.55;;;;;;;4.00;100.00;100985.50;4883769;28;20040;-80
2023/04/25 03:47:32;;;;;;;21.00;10.32;;;;;;;3.97;100.00;100975.06;4883776;28;20029;-80
2023/04/25 03:49:57;;;;;;;17.45;8.98;;;;;;;4.00;100.00;100974.13;4884191;28;20035;-79
2023/04/25 03:52:23;;;;;;;21.45;9.50;;;;;;;4.06;100.00;100981.03;4897591;28;20028;-79
2023/04/25 03:54:48;;;;;;;17.92;9.27;;;;;;;4.06;100.00;100975.78;4879471;28;20122;-79
2023/04/25 03:57:14;;;;;;;21.05;10.13;;;;;;;4.10;100.00;100980.06;4879473;28;20790;-79
2023/04/25 03:59:39;;;;;;;23.38;9.82;;;;;;;4.11;100.00;100982.66;4883279;28;20120;-78
2023/04/25 04:02:06;;;;;;;20.55;8.68;;;;;;;4.09;100.00;100979.19;4878408;28;20040;-80
2023/04/25 04:04:31;;;;;;;19.45;9.50;;;;;;;4.16;100.00;100993.09;4879799;28;20024;-79
2023/04/25 04:06:56;;;;;;;20.45;9.38;;;;;;;4.16;100.00;100991.31;4879851;28;21082;-79
2023/04/25 04:09:22;;;;;;;23.42;9.68;;;;;;;4.16;100.00;100993.09;4880070;28;20096;-80
2023/04/25 04:11:47;;;;;;;23.05;9.70;;;;;;;4.17;100.00;100992.19;4879144;28;20033;-79
2023/04/25 04:14:12;;;;;;;24.92;9.05;;;;;;;4.17;100.00;101003.59;4889326;28;20037;-80
2023/04/25 04:16:38;;;;;;;20.73;8.85;;;;;;;4.21;100.00;100994.72;4883157;28;20037;-79
2023/04/25 04:19:03;;;;;;;23.67;9.52;;;;;;;4.20;100.00;100995.63;4885025;28;20029;-80
2023/04/25 04:21:29;;;;;;;19.92;8.95;;;;;;;4.23;100.00;101008.75;4938007;28;20053;-79
2023/04/25 04:23:55;;;;;;;23.13;9.50;;;;;;;4.22;100.00;101003.47;4908871;28;20032;-80
2023/04/25 04:26:23;;;;;;;20.35;8.98;;;;;;;4.26;100.00;101007.78;4906178;28;20044;-79
2023/04/25 04:28:50;;;;;;;18.27;9.00;;;;;;;4.28;100.00;101007.75;4906437;28;20037;-80
2023/04/25 04:31:16;;;;;;;17.08;8.00;;;;;;;4.28;100.00;101007.75;4934136;28;20025;-80
2023/04/25 04:33:42;;;;;;;17.80;8.60;;;;;;;4.29;100.00;101012.13;4965471;28;20180;-80
2023/04/25 04:36:08;;;;;;;18.30;8.82;;;;;;;4.30;100.00;101014.72;4894805;28;20052;-80
2023/04/25 04:38:33;;;;;;;17.52;8.70;;;;;;;4.32;100.00;101020.84;4944413;28;20034;-79
2023/04/25 04:40:58;;;;;;;16.95;8.40;;;;;;;4.33;100.00;101019.94;4908156;28;20035;-80
2023/04/25 04:43:24;;;;;;;22.63;9.00;;;;;;;4.33;100.00;101019.94;4885263;28;20171;-80
2023/04/25 04:45:50;;;;;;;22.63;9.55;;;;;;;4.35;100.00;101025.19;4895213;28;20501;-80
2023/04/25 04:48:16;;;;;;;20.63;10.05;;;;;;;4.36;100.00;101025.13;4907210;28;20489;-79
2023/04/25 04:50:44;;;;;;;17.52;8.00;;;;;;;4.39;100.00;101029.44;4886207;29;20033;-78
2023/04/25 04:53:10;;;;;;;21.15;8.57;;;;;;;4.40;100.00;101020.66;4884701;28;20033;-79
2023/04/25 04:55:36;;;;;;;24.35;10.63;;;;;;;4.37;100.00;101021.59;4929371;28;20108;-79
2023/04/25 04:58:02;;;;;;;21.73;8.57;;;;;;;4.44;100.00;101033.75;4887494;28;20447;-80
2023/04/25 05:00:29;;;;;;;21.08;9.13;;;;;;;4.51;100.00;101045.00;4911490;28;20038;-79
2023/04/25 05:02:54;;;;;;;20.88;7.88;;;;;;;4.45;100.00;101024.94;4910004;28;20081;-79
2023/04/25 05:05:19;;;;;;;17.27;7.97;;;;;;;4.59;100.00;101047.47;4889973;28;20130;-80
2023/04/25 05:07:45;;;;;;;17.73;8.10;;;;;;;4.63;100.00;101051.75;4983170;28;20486;-79
2023/04/25 05:10:10;;;;;;;24.00;8.52;;;;;;;4.64;100.00;101056.13;4884554;28;20809;-80
2023/04/25 05:12:37;;;;;;;19.17;7.82;;;;;;;4.75;100.00;101068.16;4913604;28;20040;-80
2023/04/25 05:15:02;;;;;;;19.45;7.75;;;;;;;4.76;100.00;101066.38;4923078;28;20013;-80
2023/04/25 05:17:27;;;;;;;19.42;7.63;;;;;;;4.70;100.00;101056.00;4979248;28;20516;-80
2023/04/25 05:19:53;;;;;;;18.55;7.60;;;;;;;4.63;100.00;101059.66;4905226;28;20105;-80
2023/04/25 05:22:18;;;;;;;20.55;8.23;;;;;;;4.59;100.00;101068.56;4959557;28;20033;-79
2023/04/25 05:24:43;;;;;;;16.70;6.95;;;;;;;4.55;100.00;101069.53;4903123;28;20032;-80
2023/04/25 05:27:09;;;;;;;20.00;7.47;;;;;;;4.59;100.00;101073.81;4944669;28;20020;-80
2023/04/25 05:29:35;;;;;;;20.33;7.68;;;;;;;4.69;100.00;101073.59;4918463;28;20111;-79
2023/04/25 05:32:00;;;;;;;23.52;12.68;;;;;;;4.80;100.00;101081.25;4913872;28;20032;-79
2023/04/25 05:34:25;;;;;;;17.33;7.70;;;;;;;4.93;100.00;101081.81;4884848;28;20349;-78
2023/04/25 05:36:51;;;;;;;18.88;8.75;;;;;;;5.04;100.00;101085.06;4985873;28;20194;-80
2023/04/25 05:39:19;;;;;;;15.10;7.07;;;;;;;5.10;100.00;101076.13;4883630;28;20029;-79
2023/04/25 05:41:44;;;;;;;17.95;8.25;;;;;;;5.24;100.00;101077.53;4904021;28;20024;-79
2023/04/25 05:44:09;;;;;;;18.83;6.88;;;;;;;5.24;100.00;101068.75;4950646;28;20071;-79
2023/04/25 05:46:35;;;;;;;19.92;7.90;;;;;;;5.33;100.00;101076.44;4914466;28;20425;-80
2023/04/25 05:49:00;;;;;;;17.13;6.80;;;;;;;5.45;100.00;101083.19;4896080;28;20029;-80
2023/04/25 05:51:25;;;;;;;15.10;6.45;;;;;;;5.58;100.00;101086.38;4891419;28;20370;-80
2023/04/25 05:53:51;;;;;;;19.15;6.50;;;;;;;5.64;100.00;101088.81;4894804;28;20511;-80
2023/04/25 05:56:16;;;;;;;16.95;6.65;;;;;;;5.68;98.66;101087.84;4885769;28;20037;-79
2023/04/25 05:58:42;;;;;;;15.00;6.22;;;;;;;5.81;98.29;101097.19;4919899;28;20028;-79
2023/04/25 06:01:07;;;;;;;14.98;6.07;;;;;;;5.85;98.30;101101.50;4924542;28;20028;-80
2023/04/25 06:03:32;;;;;;;22.48;9.23;;;;;;;5.87;97.99;101102.28;4894751;28;20036;-80
2023/04/25 06:05:58;;;;;;;17.10;7.72;;;;;;;5.95;98.10;101104.75;4905013;28;20021;-80
2023/04/25 06:08:23;;;;;;;11.68;6.32;;;;;;;6.04;96.40;101114.22;4898626;28;20121;-79
2023/04/25 06:10:49;;;;;;;16.02;6.15;;;;;;;6.01;96.56;101094.00;4884153;28;20017;-78
2023/04/25 06:13:15;;;;;;;14.98;6.22;;;;;;;6.19;96.54;101108.50;4899985;28;20486;-79
2023/04/25 06:15:40;;;;;;;17.10;5.70;;;;;;;6.20;93.63;101113.75;4882867;28;20103;-80
2023/04/25 06:18:07;;;;;;;16.08;6.40;;;;;;;6.22;95.41;101114.53;4881674;28;20498;-79
2023/04/25 06:20:32;;;;;;;16.33;5.88;;;;;;;6.34;96.13;101126.56;4902800;28;20041;-78
2023/04/25 06:22:57;;;;;;;13.05;6.68;;;;;;;6.38;93.61;101122.91;4880921;28;20032;-78
2023/04/25 06:25:22;;;;;;;18.70;7.18;;;;;;;6.39;93.13;101124.63;4886116;28;20494;-78
2023/04/25 06:27:48;;;;;;;16.48;5.97;;;;;;;6.40;93.52;101128.16;4884304;28;20025;-79
2023/04/25 06:30:14;;;;;;;15.75;6.40;;;;;;;6.43;93.15;101117.47;4896016;28;20459;-79
2023/04/25 06:32:39;;;;;;;17.52;6.53;;;;;;;6.47;93.56;101125.28;4880905;28;20375;-79
2023/04/25 06:35:05;;;;;;;13.32;5.53;;;;;;;6.48;90.82;101128.81;4881161;28;20099;-80
2023/04/25 06:37:30;;;;;;;14.13;5.32;;;;;;;6.49;89.30;101122.59;4885263;28;20639;-80
2023/04/25 06:39:55;;;;;;;13.23;5.13;;;;;;;6.63;88.38;101130.13;4899788;28;20391;-79
2023/04/25 06:42:21;;;;;;;11.07;5.07;;;;;;;6.64;87.83;101131.84;4883143;28;20676;-80
2023/04/25 06:44:46;;;;;;;15.13;5.80;;;;;;;6.65;88.05;101134.47;4893206;28;20492;-79
2023/04/25 06:47:11;;;;;;;11.88;4.50;;;;;;;6.87;87.08;101145.25;4895673;28;20460;-79
2023/04/25 06:49:37;;;;;;;14.68;5.20;;;;;;;7.26;88.17;101146.69;4948757;28;20107;-79
2023/04/25 06:52:02;;;;;;;18.17;5.57;;;;;;;7.57;86.40;101151.88;4884644;28;20039;-79
2023/04/25 06:54:29;;;;;;;13.07;5.10;;;;;;;7.86;82.21;101158.78;4890380;28;20034;-80
2023/04/25 06:56:55;;;;;;;12.70;4.72;;;;;;;8.03;81.70;101147.63;4896142;28;20482;-81
2023/04/25 06:59:21;;;;;;;12.27;4.75;;;;;;;8.20;80.27;101154.06;4882460;28;20046;-79
2023/04/25 07:01:46;;;;;;;14.35;4.68;;;;;;;8.44;78.31;101151.44;4968255;28;20025;-80
2023/04/25 07:04:12;;;;;;;15.27;5.05;;;;;;;8.75;75.82;101147.66;4891274;28;20032;-81
2023/04/25 07:06:42;;;;;;;14.30;4.43;;;;;;;8.93;77.10;101150.44;4883712;28;20033;-81
2023/04/25 07:09:10;;;;;;;12.63;4.35;;;;;;;9.32;74.10;101163.09;4890225;28;20615;-79
2023/04/25 07:11:37;;;;;;;10.23;4.13;;;;;;;9.54;71.73;101156.88;4882760;29;20110;-80
2023/04/25 07:14:03;;;;;;;9.32;3.72;;;;;;;9.62;69.87;101158.28;4905415;28;20032;-80
2023/04/25 07:16:28;;;;;;;7.60;3.33;;;;;;;9.80;66.79;101156.63;4882355;28;20115;-80
2023/04/25 07:18:54;;;;;;;11.70;6.03;;;;;;;9.97;67.58;101156.78;4885343;28;20032;-79
2023/04/25 07:21:19;;;;;;;10.63;3.65;;;;;;;10.18;65.81;101160.28;4883027;28;20107;-78
2023/04/25 07:23:44;;;;;;;8.27;2.97;;;;;;;10.27;63.77;101169.69;4885090;28;20044;-79
2023/04/25 07:26:10;;;;;;;9.75;2.83;;;;;;;10.31;63.02;101160.63;4899432;28;20040;-80
2023/04/25 07:28:35;;;;;;;6.85;2.90;;;;;;;10.27;61.41;101174.16;4883193;29;20122;-81
2023/04/25 07:31:00;;;;;;;7.18;2.70;;;;;;;10.57;61.44;101166.59;4884045;29;20029;-80
2023/04/25 07:33:27;;;;;;;5.72;2.85;;;;;;;10.84;58.55;101173.31;4883861;28;20432;-79
2023/04/25 07:35:53;;;;;;;7.50;3.25;;;;;;;11.20;60.04;101175.16;4884627;28;20124;-79
2023/04/25 07:38:18;;;;;;;6.75;3.13;;;;;;;11.32;59.58;101150.56;4914340;28;20565;-79
2023/04/25 07:40:43;;;;;;;7.47;3.03;;;;;;;11.70;55.93;101174.47;4932818;28;20496;-80
2023/04/25 07:43:09;;;;;;;6.68;2.60;;;;;;;11.84;54.77;101189.81;4948182;28;20032;-80
2023/04/25 07:45:34;;;;;;;8.75;3.00;;;;;;;11.99;55.95;101177.50;4950955;28;20738;-80
2023/04/25 07:48:00;;;;;;;6.35;2.45;;;;;;;12.67;54.15;101194.38;4920493;28;20413;-81
2023/04/25 07:50:25;;;;;;;7.22;2.30;;;;;;;13.10;55.59;101194.69;4883340;28;20127;-80
2023/04/25 07:52:51;;;;;;;6.65;2.67;;;;;;;13.25;51.88;101192.97;4889464;28;20394;-80
2023/04/25 07:55:16;;;;;;;6.25;2.50;;;;;;;13.33;50.18;101198.75;4965163;28;20546;-80
2023/04/25 07:57:41;;;;;;;8.73;2.78;;;;;;;12.99;50.38;101197.06;4880464;28;20452;-81
2023/04/25 08:00:11;;;;;;;6.72;2.35;;;;;;;12.38;50.97;101207.47;4884750;28;20522;-80
2023/04/25 08:02:38;;;;;;;7.20;2.50;;;;;;;11.63;52.67;101205.91;4884617;28;20029;-80
2023/04/25 08:05:03;;;;;;;8.23;2.38;;;;;;;11.04;52.98;101219.47;4980327;28;20029;-81
2023/04/25 08:07:29;;;;;;;7.22;2.47;;;;;;;10.48;55.34;101219.28;4923079;28;20413;-81
2023/04/25 08:09:54;;;;;;;7.93;2.50;;;;;;;10.32;57.41;101217.38;4882589;28;20056;-81
2023/04/25 08:12:20;;;;;;;8.50;2.42;;;;;;;10.43;58.49;101217.78;4882539;28;20044;-81
2023/04/25 08:14:45;;;;;;;6.90;2.70;;;;;;;10.69;56.31;101227.25;4938540;28;20032;-80
2023/04/25 08:17:11;;;;;;;8.02;2.58;;;;;;;10.96;53.79;101228.66;4978267;28;20029;-81
2023/04/25 08:19:36;;;;;;;6.60;2.20;;;;;;;10.80;53.10;101240.94;4905243;28;20052;-81
2023/04/25 08:22:01;;;;;;;6.97;2.20;;;;;;;10.70;55.32;101234.28;4898401;28;20583;-80
2023/04/25 08:24:27;;;;;;;5.20;2.85;;;;;;;11.85;53.81;101240.41;4882830;28;20095;-81
2023/04/25 08:26:52;;;;;;;8.40;2.55;;;;;;;13.29;50.21;101237.28;4951612;28;20032;-80
2023/04/25 08:29:18;;;;;;;7.55;2.75;;;;;;;14.34;47.15;101227.63;4965823;28;20078;-81
2023/04/25 08:31:43;;;;;;;8.02;2.35;;;;;;;14.18;46.03;101243.75;4942060;28;20077;-81
2023/04/25 08:34:09;;;;;;;6.68;2.22;;;;;;;13.35;48.47;101251.19;4898570;28;20041;-80
2023/04/25 08:36:34;;;;;;;8.68;2.67;;;;;;;12.27;49.60;101251.66;4941731;28;20059;-81
2023/04/25 08:39:00;;;;;;;6.22;2.40;;;;;;;11.58;51.55;101242.63;4884535;28;20024;-80
2023/04/25 08:41:26;;;;;;;7.30;2.30;;;;;;;10.72;52.70;101267.06;4934433;28;20032;-80
2023/04/25 08:43:53;;;;;;;10.75;2.97;;;;;;;10.15;53.79;101271.28;4886133;29;20052;-82
2023/04/25 08:46:19;;;;;;;8.95;2.50;;;;;;;10.03;54.75;101272.66;4884886;28;20119;-81
2023/04/25 08:48:47;;;;;;;6.00;2.50;;;;;;;9.89;55.15;101275.88;4884944;28;20636;-80
2023/04/25 08:51:24;;;;;;;8.65;2.78;;;;;;;10.25;56.66;101280.66;4892447;28;20029;-81
2023/04/25 08:56:20;;;;;;;8.45;3.05;;;;;;;10.93;54.35;101275.88;4904945;28;20062;-74
2023/04/25 08:58:48;;;;;;;7.55;2.90;;;;;;;11.31;51.90;101287.44;4908232;28;20111;-75
2023/04/25 09:01:14;;;;;;;7.40;2.70;;;;;;;11.47;52.83;101291.09;4913144;28;20036;-74
2023/04/25 09:03:39;;;;;;;7.45;2.40;;;;;;;11.46;50.74;101302.69;4913252;28;20127;-75
2023/04/25 09:06:05;;;;;;;10.02;2.75;;;;;;;11.19;51.87;101298.66;4905511;28;20039;-75
2023/04/25 09:08:30;;;;;;;7.50;2.40;;;;;;;11.24;53.80;101301.97;4901315;29;20154;-74
2023/04/25 09:10:56;;;;;;;8.55;2.92;;;;;;;11.39;54.65;101303.06;4907827;28;20112;-75
2023/04/25 09:13:28;;;;;;;9.13;2.88;;;;;;;11.83;54.46;101311.66;4925946;28;20420;-73
2023/04/25 09:15:55;;;;;;;5.20;2.00;;;;;;;11.92;48.36;101313.84;4904807;28;20039;-74
2023/04/25 09:18:28;;;;;;;7.50;2.25;;;;;;;12.08;49.29;101318.41;4901151;28;20504;-74
2023/04/25 09:20:55;;;;;;;6.60;2.40;;;;;;;12.66;48.66;101327.00;4906159;28;20040;-74
2023/04/25 09:23:21;;;;;;;6.65;2.20;;;;;;;13.25;47.02;101315.94;4905021;29;20500;-75
2023/04/25 09:25:51;;;;;;;5.63;1.75;;;;;;;14.23;45.03;101316.63;4903033;28;20223;-74
2023/04/25 09:28:24;;;;;;;6.65;2.22;;;;;;;15.64;43.29;101313.31;4904218;28;20028;-74
2023/04/25 09:30:49;;;;;;;6.93;2.50;;;;;;;15.46;43.05;101320.72;4897261;28;20032;-76
2023/04/25 09:33:14;;;;;;;6.35;2.55;;;;;;;14.18;45.45;101329.41;4902704;28;20042;-74
2023/04/25 09:35:42;;;;;;;6.18;2.38;;;;;;;13.17;47.89;101333.25;4904858;28;20115;-73
2023/04/25 09:38:12;;;;;;;8.63;2.58;;;;;;;12.67;47.95;101341.25;4900826;28;20032;-75
2023/04/25 09:40:45;;;;;;;6.45;2.00;;;;;;;12.66;47.97;101340.34;4917103;28;20508;-74
2023/04/25 09:43:16;;;;;;;8.30;2.25;;;;;;;12.86;47.10;101338.47;4904845;28;20039;-75
2023/04/25 09:45:45;;;;;;;7.13;2.42;;;;;;;13.42;46.64;101334.63;4909138;28;20032;-73
2023/04/25 09:48:12;;;;;;;7.88;2.10;;;;;;;13.44;46.50;101336.22;4907333;28;20032;-74
2023/04/25 09:50:39;;;;;;;5.47;1.90;;;;;;;13.84;44.83;101344.72;4903463;28;20578;-74
2023/04/25 09:53:05;;;;;;;6.40;1.80;;;;;;;13.90;44.15;101347.03;4904616;28;20016;-74
2023/04/25 09:55:34;;;;;;;5.97;2.10;;;;;;;13.97;43.25;101355.59;4905056;29;20087;-73
2023/04/25 09:58:05;;;;;;;7.35;2.22;;;;;;;14.41;43.87;101357.50;4892933;29;20036;-72
2023/04/25 10:00:31;;;;;;;8.45;2.03;;;;;;;14.50;42.14;101356.13;4906461;28;20024;-73
2023/04/25 10:02:58;;;;;;;6.40;1.88;;;;;;;14.47;42.34;101346.44;4908734;28;20048;-73
2023/04/25 10:05:25;;;;;;;5.97;1.70;;;;;;;14.97;41.94;101344.41;4903758;28;20191;-74
2023/04/25 10:07:51;;;;;;;6.03;2.00;;;;;;;15.75;41.93;101345.72;4895086;28;20074;-75
2023/04/25 10:10:18;;;;;;;6.57;2.20;;;;;;;16.50;38.88;101346.13;4906018;28;20036;-74
2023/04/25 10:12:44;;;;;;;5.60;1.98;;;;;;;16.64;37.80;101353.25;4900674;28;20032;-72
2023/04/25 10:15:12;;;;;;;5.38;2.03;;;;;;;15.88;38.93;101354.72;4904554;29;20030;-73
2023/04/25 10:17:39;;;;;;;6.07;2.20;;;;;;;16.90;38.53;101348.81;4906600;28;20060;-74
2023/04/25 10:20:10;;;;;;;7.93;2.10;;;;;;;15.90;38.05;101342.03;4924488;28;20050;-73
2023/04/25 10:22:44;;;;;;;3.92;1.75;;;;;;;14.11;41.92;101357.47;4901730;28;20032;-74
2023/04/25 10:25:11;;;;;;;5.55;2.00;;;;;;;12.92;44.23;101363.06;4904748;29;20086;-74
2023/04/25 10:27:37;;;;;;;6.68;2.20;;;;;;;12.10;45.73;101346.78;4915515;29;20119;-73
2023/04/25 10:30:15;;;;;;;7.28;2.60;;;;;;;11.67;46.95;101358.63;4900698;28;20138;-73
2023/04/25 10:32:44;;;;;;;4.80;2.00;;;;;;;12.04;44.63;101356.88;4897687;28;20119;-74
2023/04/25 10:35:11;;;;;;;6.80;1.88;;;;;;;14.56;40.70;101358.47;4897558;29;20063;-74
2023/04/25 10:37:36;;;;;;;3.45;1.75;;;;;;;16.22;36.53;101356.97;4901891;28;20251;-74
2023/04/25 10:40:09;;;;;;;8.98;2.15;;;;;;;18.76;34.06;101354.97;4931963;28;20038;-73
2023/04/25 10:42:35;;;;;;;3.72;1.70;;;;;;;20.83;31.21;101349.81;4909143;28;20032;-75
2023/04/25 10:45:10;;;;;;;3.60;1.75;;;;;;;22.24;30.33;101351.72;4904695;28;20141;-75
2023/04/25 10:47:36;;;;;;;2.35;1.50;;;;;;;21.44;28.06;101346.31;4903368;29;20110;-73
2023/04/25 10:50:07;;;;;;;4.10;1.42;;;;;;;22.02;26.53;101354.63;4897260;28;20112;-75
2023/04/25 10:52:33;;;;;;;2.58;1.50;;;;;;;21.81;26.58;101355.56;4901234;28;20416;-74
2023/04/25 10:54:58;;;;;;;3.58;1.33;;;;;;;19.51;28.54;101354.44;4902710;28;20376;-73
2023/04/25 10:57:29;;;;;;;2.55;1.20;;;;;;;18.14;30.56;101365.00;4901753;28;20060;-75
2023/04/25 11:00:05;;;;;;;4.00;1.50;;;;;;;17.69;32.99;101347.66;4901522;28;20038;-73
2023/04/25 11:02:31;;;;;;;3.08;1.35;;;;;;;18.63;31.07;101355.88;4902876;28;20062;-75
2023/04/25 11:04:56;;;;;;;3.58;1.48;;;;;;;19.05;30.19;101358.09;4901665;29;20021;-76
2023/04/25 11:07:38;;;;;;;5.13;1.58;;;;;;;20.87;29.94;101346.72;4900917;28;20066;-75
2023/04/25 11:10:05;;;;;;;4.57;1.45;;;;;;;22.29;25.37;101344.00;4981653;28;20031;-74
2023/04/25 11:12:31;;;;;;;4.20;1.38;;;;;;;23.00;25.60;101348.25;4913948;28;20036;-73
2023/04/25 11:15:05;;;;;;;3.97;1.58;;;;;;;24.69;25.16;101346.03;4905159;28;20269;-74
2023/04/25 11:17:31;;;;;;;2.58;1.40;;;;;;;23.28;23.32;101341.88;4901389;29;20074;-73
2023/04/25 11:19:57;;;;;;;4.22;1.40;;;;;;;22.49;25.43;101352.13;4925610;28;20042;-73